Silverton Ultra Marathon 100K Course: All-time Best

Full Course: 62.0 miles, 8,780 feet elevation gain, 8,297 feet elevation loss

Searched 3 events from September 24, 2016 to August 11, 2018
Overall/
Gender
Name Category From Year Course Time
1/1 Chris Marcinek Male, 30 Montrose, CO 2018 11:44:36
2/2 Jonathan Rea Male, 25 Lakewood, CO 2017 11:51:36
3/3 Garrett Smith Male, 37 Tucson, AZ 2017 12:10:03
4/4 Robert Steffens Male, 29 Carbondale, CO 2018 12:28:26
5/5 Seth Wealing Male, 38 Boulder, CO 2017 12:37:16
6/6 Josh Fuller Male, 30 Jackson, WY 2018 13:06:11
7/7 Ryan Marble Male, 25 Silverton, CO 2018 13:32:15
8/8 Nicholas Krueger Male, 34 Durango, CO 2016 13:38:31
9/9 Lincoln Davie Male, 34 Wheat Ridge, CO 2018 13:49:30
10/10 Kris Tyson Male, 35 Fort Collins, CO 2016 13:53:45
11/11 Garrett Dickson Male, 28 Fruita, CO 2018 14:13:10
12/12 Cody Braford Male, 42 Silverton, CO 2018 14:14:02
13/13 Joshua Felix Male, 40 Copper Mountain, CO 2018 14:21:43
14/14 Andre Chaves Male, 31 Hartsel, CO 2016 14:25:42
15/15 Shaun Higgins Male, 30 Denver, CO 2016 14:44:51
16/16 Jason Morgan Male, 43 Green Mountain Falls, CO 2018 14:47:05
17/17 Rick Schafer Male, 47 Denver, CO 2018 14:56:07
18/18 Brian Macey Male, 32 Lakewood, CO 2018 15:02:28
19/19 Edward Trzcienski Male, 55 Albuquerque, NM 2017 15:10:40
20/20 Vincent Dorzweiler Male, 30 Boulder, CO 2016 15:10:42
21/21 Michael Stesney Male, 46 Denver, CO 2016 15:13:43
22/1 Ivy Lefebvre Female, 40 Silverton, CO 2018 15:18:27
23/22 Jordan Bierma Male, 31 Silverton, CO 2018 15:28:43
24/23 Andrew Reed Male, 27 Longmont, CO 2017 15:41:59
25/24 Tyler Gault Male, 27 Silverton, CO 2018 15:43:49
26/25 Aaron Johnson Male, 32 Larkspur, CA 2016 15:47:37
27/26 Andrew Reed Male, 26 Longmont, CO 2016 15:48:48
28/2 Becki Lynn Lassley Female, 40 Littleton, CO 2018 15:51:16
29/27 Christopher Concannon Male, 29 Denver, CO 2016 15:55:47
30/28 Jeremy Layer Male, 46 Erie, CO 2018 16:06:49
31/29 Jason Veliquette Male, 37 Fort Collins, CO 2017 16:10:08
32/30 Iain Saunderson Male, 47 Parker, CO 2016 16:13:23
33/3 Erin Tripp Female, 37 Jamestown, CO 2017 16:18:00
34/4 Ivy Lefebvre Female, 38 Silverton, CO 2016 16:27:38
35/31 Justin Busch Male, 31 Golden, CO 2016 16:27:44
36/32 Peter Swank Male, 30 Boulder, CO 2016 16:30:43
37/33 Brandon Koehler Male, 27 Gardiner, MT 2016 16:51:34
38/34 Mark Werkmeister Male, 55 Santa Fe, NM 2016 16:59:37
39/35 Walter Olsen Male, 39 Lakewood, CO 2016 17:00:03
40/36 Jason Platt Male, 31 Arvada, CO 2018 17:19:16
41/37 David Hill Male, 47 Denver, CO 2016 17:25:26
42/38 Tristan Rubadeau Male, 33 Telluride, CO 2018 17:28:44
43/39 Patrick Sheridan Male, 27 Thornton, CO 2018 17:30:35
44/5 Keeton Disser Female, 41 Ouray, CO 2018 17:32:09
45/40 Steve Collins Male, 45 Durango, CO 2016 17:36:00
46/41 David Wiskowski Male, 39 Mettawa, IL 2016 17:37:00
47/42 David Wiskowski Male, 40 San Clemente, CA 2017 17:39:53
48/43 Garrett Gibbons Male, 40 Centennial, CO 2018 17:58:43
49/44 Tetsuro Ogata Male, 34 Takamatsu, Japan 2016 18:00:00
50/45 Jonathan Rea Male, 24 Golden, CO 2016 18:20:14
51/6 Anna Rienstra Female, 24 Frisco, CO 2016 18:28:17
52/7 Keesha Erickson Female, 28 Boulder, CO 2016 18:36:05
53/8 Becki Lynn Lassley Female, 40 Littleton, CO 2017 18:42:04
54/9 Kelsy Been Female, 32 Marble, CO 2018 19:08:14
55/46 Charles Johnston Male, 33 Montrose, CO 2017 19:38:23
56/47 Mina Ebrahem Male, 29 Abo Korkas, Egypt 2017 19:38:23
57/48 Lamar Jost Male, 39 Evergreen, CO 2016 19:43:20
58/49 Dan Ainslie Male, 44 Arvada, CO 2018 19:45:34
59/50 Brian Tomas Male, 58 Boulder, CO 2018 19:45:36
60/51 Christopher Haley Male, 62 Medfield, MA 2018 19:55:16
61/10 Shelly Rotte Female, 43 Leadville, CO 2017 19:56:18
62/52 Lon Rathmell Male, 48 Colorado Springs, CO 2016 19:59:25
63/53 Howard Mayson Male, 64 Breckenridge, CO 2016 20:05:05
64/54 Kevin Smith Male, 61 Lafayette, CO 2017 20:36:41
65/11 Stephanie Bachman Female, 45 Boulder, CO 2017 20:36:41
66/12 Vanessa Witte Female, 34 Boulder, CO 2017 20:36:41
67/13 Heidi Kumm Female, 31 Silverthorne, CO 2018 20:43:34
68/14 Beth Gilday Female, 57 Flat Rock, MI 2018 21:25:58
69/15 Christina Dennison Female, 34 Montgomery, AL 2018 21:30:21
70/16 Stephanie Bachman Female, 46 Boulder, CO 2018 21:30:24
71/17 Alyssa Gottshall Female, 27 Aurora, CO 2017 21:31:37
72/18 Christina Dennison Female, 33 Denver, CO 2017 21:35:58
73/19 Anna Rienstra Female, 25 Frisco, CO 2017 21:37:47
74/55 James Schroeter Male, 50 Longmont, CO 2018 21:42:37
75/20 Kimberly Greer Female, 55 Larkspur, CO 2016 22:53:00